Time;durP1;ratioP1;P1;durP2;ratioP2;P2;SDS_P1;SDS_P2;PMS_P1;PMS_P2;Temp;Humidity;BMP_temperature;BMP_pressure;BME280_temperature;BME280_humidity;BME280_pressure;Samples;Min_cycle;Max_cycle;Signal;HPM_P1;HPM_P2
2022/07/14 00:01:26;;;;;;;1.13;0.60;;;;;;;21.29;44.50;97018.69;4937158;29;20502;-76
2022/07/14 00:03:54;;;;;;;3.05;0.88;;;;;;;21.26;44.12;97017.31;4936903;29;20057;-76
2022/07/14 00:06:23;;;;;;;1.20;0.65;;;;;;;21.25;44.32;97012.25;4936908;29;20494;-76
2022/07/14 00:08:50;;;;;;;3.50;1.08;;;;;;;21.22;44.63;97002.91;4936995;29;20052;-75
2022/07/14 00:11:18;;;;;;;1.60;0.75;;;;;;;21.21;44.42;97003.97;4936691;29;20059;-76
2022/07/14 00:13:45;;;;;;;1.52;0.50;;;;;;;21.22;44.48;97008.22;4936624;29;20142;-76
2022/07/14 00:16:13;;;;;;;1.25;0.82;;;;;;;21.21;43.94;97006.63;4936658;29;20073;-75
2022/07/14 00:18:44;;;;;;;0.73;0.63;;;;;;;21.22;44.15;97012.75;4936683;29;20051;-76
2022/07/14 00:21:11;;;;;;;2.55;0.50;;;;;;;21.22;44.09;97008.22;4936693;29;20058;-76
2022/07/14 00:23:40;;;;;;;1.17;0.50;;;;;;;21.23;45.17;97004.53;4936737;29;20051;-76
2022/07/14 00:26:08;;;;;;;1.48;0.88;;;;;;;21.25;44.89;97001.63;4936283;29;20138;-76
2022/07/14 00:28:36;;;;;;;1.08;0.40;;;;;;;21.25;45.36;96999.78;4936252;29;20593;-76
2022/07/14 00:31:06;;;;;;;0.95;0.70;;;;;;;21.23;45.07;96999.25;4936331;29;20142;-75
2022/07/14 00:33:35;;;;;;;1.45;0.50;;;;;;;21.20;44.92;96997.06;4936671;29;20048;-75
2022/07/14 00:36:03;;;;;;;1.33;0.80;;;;;;;21.18;44.75;97001.78;4936419;29;20134;-75
2022/07/14 00:38:31;;;;;;;1.38;0.50;;;;;;;21.19;46.05;96995.47;4936358;29;20142;-75
2022/07/14 00:41:00;;;;;;;1.05;0.65;;;;;;;21.21;46.32;96996.03;4936407;29;20147;-76
2022/07/14 00:43:28;;;;;;;2.00;0.88;;;;;;;21.18;45.43;96991.97;4936632;29;20442;-76
2022/07/14 00:45:55;;;;;;;0.60;0.50;;;;;;;21.14;45.44;96990.03;4936243;29;20048;-75
2022/07/14 00:48:24;;;;;;;2.95;0.60;;;;;;;21.11;45.65;96990.53;4936062;29;20569;-75
2022/07/14 00:50:51;;;;;;;1.80;0.70;;;;;;;21.10;45.75;96995.03;4935990;29;20428;-77
2022/07/14 00:53:20;;;;;;;5.45;1.27;;;;;;;21.07;45.36;96986.75;4943780;29;20052;-76
2022/07/14 00:55:47;;;;;;;1.10;0.80;;;;;;;21.09;47.05;97000.56;4955586;29;20051;-76
2022/07/14 00:58:16;;;;;;;1.77;1.35;;;;;;;21.06;46.52;97006.38;4955207;29;20067;-75
2022/07/14 01:00:44;;;;;;;3.60;1.30;;;;;;;20.94;47.15;97004.56;4939215;29;20532;-76
2022/07/14 01:03:12;;;;;;;3.30;1.05;;;;;;;20.86;47.23;97004.13;4937019;29;20052;-76
2022/07/14 01:05:40;;;;;;;1.27;1.00;;;;;;;20.78;47.16;97003.47;4936470;29;20052;-75
2022/07/14 01:08:08;;;;;;;2.63;1.25;;;;;;;20.73;47.21;96997.31;4936427;29;20071;-75
2022/07/14 01:10:36;;;;;;;2.63;0.93;;;;;;;20.70;47.31;97005.72;4935388;29;20135;-76
2022/07/14 01:13:05;;;;;;;2.53;1.20;;;;;;;20.71;47.22;97007.34;4936343;29;20057;-76
2022/07/14 01:15:35;;;;;;;4.85;1.20;;;;;;;20.72;47.73;97008.94;4935743;29;20056;-75
2022/07/14 01:18:04;;;;;;;1.55;1.23;;;;;;;20.74;47.88;97007.66;4935890;29;20111;-76
2022/07/14 01:20:32;;;;;;;1.30;1.00;;;;;;;20.75;47.28;97008.44;4935526;29;20556;-76
2022/07/14 01:23:01;;;;;;;2.15;1.08;;;;;;;20.77;47.54;97016.97;4935794;29;20143;-76
2022/07/14 01:25:28;;;;;;;2.17;1.48;;;;;;;20.78;47.58;97013.28;4944996;29;20055;-76
2022/07/14 01:27:56;;;;;;;2.22;1.50;;;;;;;20.78;47.24;97010.63;4953344;29;20059;-76
2022/07/14 01:30:23;;;;;;;2.15;1.40;;;;;;;20.76;47.40;97002.91;4945636;29;20055;-76
2022/07/14 01:32:51;;;;;;;1.42;1.00;;;;;;;20.74;47.77;97001.53;4937754;29;20058;-76
2022/07/14 01:35:18;;;;;;;2.53;1.13;;;;;;;20.67;47.74;97004.34;4937403;29;20111;-75
2022/07/14 01:37:48;;;;;;;2.63;1.20;;;;;;;20.61;47.95;97001.81;4936220;29;20054;-75
2022/07/14 01:40:17;;;;;;;3.55;1.73;;;;;;;20.53;48.52;97011.75;4935328;29;20052;-76
2022/07/14 01:42:45;;;;;;;3.08;1.15;;;;;;;20.53;48.64;97006.44;4935638;29;20052;-75
2022/07/14 01:45:13;;;;;;;3.60;0.95;;;;;;;20.56;48.91;97010.44;4935951;29;20155;-76
2022/07/14 01:47:41;;;;;;;1.42;1.13;;;;;;;20.54;48.57;97008.03;4935507;29;20082;-76
2022/07/14 01:50:09;;;;;;;1.60;1.30;;;;;;;20.52;49.01;97004.81;4935181;29;20490;-76
2022/07/14 01:52:36;;;;;;;3.20;1.30;;;;;;;20.50;49.02;96990.19;4936074;29;20463;-75
2022/07/14 01:55:05;;;;;;;2.60;1.52;;;;;;;20.52;49.81;96994.22;4936009;29;20062;-75
2022/07/14 01:57:34;;;;;;;2.13;1.77;;;;;;;20.50;49.53;96993.63;4935371;29;20048;-75
2022/07/14 02:00:01;;;;;;;2.40;1.60;;;;;;;20.44;48.85;96991.91;4935215;29;20425;-75
2022/07/14 02:02:29;;;;;;;3.03;1.50;;;;;;;20.41;49.13;96992.41;4935316;29;20059;-75
2022/07/14 02:04:57;;;;;;;1.70;1.55;;;;;;;20.39;48.87;96989.19;4935519;29;20174;-75
2022/07/14 02:07:24;;;;;;;2.47;1.48;;;;;;;20.33;48.44;96990.94;4935497;29;20470;-75
2022/07/14 02:12:38;;;;;;;2.20;1.30;;;;;;;20.26;48.41;96994.75;4935324;29;20048;-76
2022/07/14 02:15:07;;;;;;;2.40;1.05;;;;;;;20.23;48.28;96995.22;4934947;29;20138;-75
2022/07/14 02:17:34;;;;;;;2.67;1.35;;;;;;;20.23;48.77;96989.94;4938512;29;20482;-75
2022/07/14 03:33:03;;;;;;;1.23;0.70;;;;;;;19.40;47.95;96944.94;4897621;29;20052;-75
2022/07/14 03:35:30;;;;;;;1.27;0.85;;;;;;;19.39;47.81;96943.31;4899490;29;20084;-75
2022/07/14 03:37:58;;;;;;;4.20;1.60;;;;;;;19.39;47.79;96945.97;4899626;29;20052;-75
2022/07/14 03:40:45;;;;;;;2.10;0.90;;;;;;;19.37;47.93;96949.88;4902392;29;20052;-75
2022/07/14 03:43:13;;;;;;;1.23;0.88;;;;;;;19.34;48.05;96951.94;4918344;29;20134;-75
2022/07/14 03:45:42;;;;;;;3.22;1.05;;;;;;;19.32;48.15;96951.38;5008090;23;20050;-78
2022/07/14 03:48:14;;;;;;;1.17;0.65;;;;;;;19.34;48.65;96951.94;5000248;28;20050;-79
2022/07/14 03:50:51;;;;;;;2.25;1.13;;;;;;;19.37;48.23;96955.16;4999924;28;20057;-78
2022/07/14 03:53:26;;;;;;;2.03;1.05;;;;;;;19.38;48.22;96956.78;4999589;28;20045;-78
2022/07/14 03:55:56;;;;;;;;;;;;;;;19.38;48.22;96948.88;5000451;28;20045;-79
2022/07/14 03:58:31;;;;;;;1.35;0.90;;;;;;;19.35;48.19;96945.63;4999229;28;19953;-78
2022/07/14 04:01:04;;;;;;;1.55;0.70;;;;;;;19.37;48.81;96949.88;4999399;28;20058;-78
2022/07/14 04:03:44;;;;;;;1.63;1.05;;;;;;;19.39;48.43;96950.47;4999171;28;20054;-78
2022/07/14 04:06:17;;;;;;;3.67;1.05;;;;;;;19.38;48.47;96944.38;4999253;28;20054;-79
2022/07/14 04:08:47;;;;;;;2.03;0.90;;;;;;;19.37;48.35;96944.59;4999570;28;20037;-78
2022/07/14 04:11:21;;;;;;;3.28;0.90;;;;;;;19.33;48.51;96945.06;4999027;28;20081;-78
2022/07/14 04:14:02;;;;;;;1.15;1.00;;;;;;;19.33;48.57;96953.00;4998914;28;20054;-79
2022/07/14 04:16:42;;;;;;;3.25;0.88;;;;;;;19.31;48.63;96951.63;4999149;28;20062;-78
2022/07/14 04:19:18;;;;;;;2.80;0.90;;;;;;;19.30;48.69;96947.34;4999006;28;20051;-79
2022/07/14 04:21:55;;;;;;;1.77;0.70;;;;;;;19.33;48.66;96950.34;4998880;28;20041;-79
2022/07/14 04:24:48;;;;;;;3.13;0.98;;;;;;;19.35;48.74;96958.88;4998915;28;20047;-78
2022/07/14 04:27:19;;;;;;;2.25;0.98;;;;;;;19.36;48.46;96957.03;4999056;28;20035;-79
2022/07/14 04:29:53;;;;;;;1.33;0.98;;;;;;;19.35;48.54;96956.22;4998762;28;20054;-79
2022/07/14 04:32:24;;;;;;;1.42;0.80;;;;;;;19.38;48.58;96962.09;4998800;28;20055;-78
2022/07/14 04:35:00;;;;;;;1.17;0.80;;;;;;;19.41;49.17;96961.63;4998842;28;20084;-77
2022/07/14 04:37:38;;;;;;;2.00;1.02;;;;;;;19.42;48.61;96973.81;4998701;28;20058;-78
2022/07/14 04:40:16;;;;;;;3.90;1.00;;;;;;;19.40;48.61;96981.19;4998176;28;20030;-79
2022/07/14 04:42:48;;;;;;;2.17;1.00;;;;;;;19.37;48.95;96977.13;4998921;28;20110;-79
2022/07/14 04:45:23;;;;;;;1.98;1.17;;;;;;;19.36;48.80;96975.53;4999241;28;20062;-79
2022/07/14 04:48:02;;;;;;;1.40;0.85;;;;;;;19.35;48.91;96974.72;4998487;28;20041;-78
2022/07/14 04:53:30;;;;;;;1.63;0.98;;;;;;;19.34;48.96;96973.09;4999699;28;20051;-79
2022/07/14 04:56:04;;;;;;;2.95;0.77;;;;;;;19.37;49.12;96976.34;4999642;28;20046;-79
2022/07/14 04:58:39;;;;;;;1.65;0.90;;;;;;;19.39;48.87;96985.66;4999630;28;20051;-79
2022/07/14 05:01:13;;;;;;;3.05;1.08;;;;;;;19.43;49.00;96975.41;4999333;28;20046;-79
2022/07/14 05:03:45;;;;;;;;;;;;;;;19.48;49.15;96975.53;4999847;28;20053;-79
2022/07/14 05:06:26;;;;;;;3.25;1.30;;;;;;;19.52;49.23;96977.50;4998745;28;19906;-79
2022/07/14 05:08:56;;;;;;;3.90;2.17;;;;;;;19.56;49.42;96968.06;4998985;28;20050;-78
2022/07/14 05:11:30;;;;;;;2.55;1.50;;;;;;;19.61;49.15;96975.31;4998247;28;20047;-78
2022/07/14 05:14:06;;;;;;;2.10;1.85;;;;;;;19.64;49.34;96977.50;4998513;28;20039;-79
2022/07/14 05:16:45;;;;;;;2.72;1.92;;;;;;;19.68;49.33;96969.94;4998380;28;20037;-79
2022/07/14 05:19:42;;;;;;;2.67;1.90;;;;;;;19.72;49.30;96971.91;4998544;28;20050;-79
2022/07/14 05:22:26;;;;;;;3.17;1.90;;;;;;;19.77;49.28;96971.22;4996998;28;20055;-78
2022/07/14 05:24:58;;;;;;;3.83;1.75;;;;;;;19.81;49.36;96968.88;4997652;28;20074;-78
2022/07/14 05:27:35;;;;;;;4.03;1.92;;;;;;;19.86;49.22;96969.03;4998977;28;20046;-79
2022/07/14 05:30:28;;;;;;;3.28;1.48;;;;;;;19.90;49.14;96960.38;4998981;28;20073;-79
2022/07/14 05:33:00;;;;;;;4.90;1.90;;;;;;;19.95;48.97;96959.69;4998813;28;20050;-78
2022/07/14 05:35:31;;;;;;;1.02;1.00;;;;;;;20.00;49.23;96964.28;4998817;28;20288;-80
2022/07/14 05:38:03;;;;;;;3.90;1.30;;;;;;;20.05;49.12;96967.03;4999273;28;20033;-80
2022/07/14 05:43:26;;;;;;;4.03;1.35;;;;;;;20.14;49.07;96969.09;4997045;28;20235;-79
2022/07/14 05:46:04;;;;;;;3.35;1.40;;;;;;;20.19;49.17;96973.69;4997494;28;20066;-78
2022/07/14 05:48:34;;;;;;;4.07;1.50;;;;;;;20.23;49.36;96968.72;4998148;28;20046;-78
2022/07/14 05:51:07;;;;;;;6.30;1.42;;;;;;;20.27;49.72;96956.59;4997519;28;20058;-78
2022/07/14 05:53:38;;;;;;;2.05;1.08;;;;;;;20.31;49.64;96963.88;4997747;28;20055;-79
2022/07/14 05:56:08;;;;;;;8.23;1.67;;;;;;;20.36;49.24;96968.47;4997682;28;20054;-79
2022/07/14 05:58:37;;;;;;;5.43;1.30;;;;;;;20.40;49.29;96969.59;4997482;28;20070;-78
2022/07/14 06:01:09;;;;;;;5.70;1.38;;;;;;;20.45;49.61;96961.75;4997472;28;20050;-78
2022/07/14 06:03:42;;;;;;;2.03;1.27;;;;;;;20.50;49.51;96963.69;4997545;28;20106;-78
2022/07/14 06:06:13;;;;;;;3.92;1.58;;;;;;;20.55;49.84;96956.66;4997407;28;20076;-78
2022/07/14 06:08:43;;;;;;;3.53;2.15;;;;;;;20.61;49.72;96951.47;4997778;28;20035;-78
2022/07/14 06:11:12;;;;;;;5.55;2.90;;;;;;;20.67;49.95;96953.19;4997902;28;20039;-79
2022/07/14 06:13:49;;;;;;;3.30;2.10;;;;;;;20.71;49.72;96949.00;4997852;28;20030;-79
2022/07/14 06:16:21;;;;;;;6.72;3.00;;;;;;;20.77;49.86;96948.03;4997525;28;20041;-79
2022/07/14 06:18:49;;;;;;;5.13;3.38;;;;;;;20.83;49.93;96941.00;4997623;28;20051;-79
2022/07/14 06:21:18;;;;;;;5.93;3.60;;;;;;;20.87;49.94;96937.63;4997592;28;20054;-79
2022/07/14 06:23:49;;;;;;;5.18;2.25;;;;;;;20.92;49.49;96935.03;4997747;28;20476;-78
2022/07/14 06:26:19;;;;;;;3.78;1.98;;;;;;;20.98;49.73;96923.47;4997637;28;20065;-78
2022/07/14 06:28:47;;;;;;;3.67;1.50;;;;;;;21.05;49.46;96927.84;4997300;28;20267;-78
2022/07/14 06:31:16;;;;;;;6.10;1.98;;;;;;;21.12;49.21;96917.84;4997382;28;20035;-78
2022/07/14 06:33:45;;;;;;;3.38;2.00;;;;;;;21.18;49.25;96932.81;4997262;28;20058;-79
2022/07/14 06:36:13;;;;;;;7.03;2.05;;;;;;;21.23;49.42;96924.97;4997362;28;20045;-78
2022/07/14 06:38:41;;;;;;;3.72;1.73;;;;;;;21.31;49.29;96931.69;4997482;28;20070;-79
2022/07/14 06:41:11;;;;;;;2.97;1.55;;;;;;;21.38;48.82;96922.53;4997759;28;20105;-79
2022/07/14 06:43:40;;;;;;;2.53;1.73;;;;;;;21.46;48.63;96923.19;4998011;28;20035;-78
2022/07/14 06:46:08;;;;;;;2.60;1.40;;;;;;;21.54;48.42;96922.78;4997098;28;20038;-79
2022/07/14 06:48:37;;;;;;;3.25;1.35;;;;;;;21.60;48.50;96919.97;4997405;28;20050;-79
2022/07/14 06:51:06;;;;;;;7.43;1.40;;;;;;;21.69;48.44;96917.69;4997995;28;20046;-79
2022/07/14 06:53:36;;;;;;;3.72;1.27;;;;;;;21.77;47.83;96922.56;4997394;28;20042;-79
2022/07/14 06:56:08;;;;;;;4.15;1.20;;;;;;;21.85;46.81;96921.34;4997291;28;20034;-79
2022/07/14 06:58:38;;;;;;;2.47;1.55;;;;;;;21.93;45.18;96918.28;4997503;28;20055;-79
2022/07/14 07:01:07;;;;;;;6.97;1.50;;;;;;;22.02;45.42;96918.66;4997748;28;20035;-79
2022/07/14 07:03:37;;;;;;;2.10;1.17;;;;;;;22.13;45.25;96915.06;5000773;28;20054;-80
2022/07/14 07:08:52;;;;;;;8.85;2.20;;;;;;;22.32;44.95;96915.56;5001056;28;20071;-79
2022/07/14 07:11:20;;;;;;;5.50;1.92;;;;;;;22.43;44.83;96913.81;5001101;28;20078;-79
2022/07/14 07:13:51;;;;;;;4.60;2.38;;;;;;;22.55;45.20;96914.47;5001102;28;20057;-79
2022/07/14 07:16:21;;;;;;;4.72;1.40;;;;;;;22.65;44.60;96919.06;5001008;28;20030;-79
2022/07/14 07:18:50;;;;;;;4.35;1.83;;;;;;;22.77;44.13;96916.28;5001173;28;20074;-79
2022/07/14 07:21:22;;;;;;;0.73;0.68;;;;;;;22.87;41.89;96911.06;5001013;28;20034;-79
2022/07/14 07:23:54;;;;;;;0.85;0.77;;;;;;;22.99;41.48;96914.34;5001234;28;20051;-79
2022/07/14 07:26:25;;;;;;;1.00;0.90;;;;;;;23.10;41.25;96919.78;5001211;28;20054;-79
2022/07/14 07:28:56;;;;;;;0.50;0.50;;;;;;;23.22;40.79;96915.91;5001348;28;20066;-79
2022/07/14 07:31:31;;;;;;;3.72;0.75;;;;;;;23.36;40.17;96902.94;5001335;28;20039;-79
2022/07/14 07:34:02;;;;;;;0.95;0.65;;;;;;;23.50;39.79;96910.47;5001294;28;20042;-79
2022/07/14 07:36:31;;;;;;;1.83;0.40;;;;;;;23.62;39.21;96913.75;5000985;28;20081;-79
2022/07/14 07:39:00;;;;;;;1.58;0.90;;;;;;;23.75;38.84;96909.84;5000754;28;20027;-79
2022/07/14 07:41:29;;;;;;;1.75;0.57;;;;;;;23.87;38.69;96907.00;5000749;28;20066;-79
2022/07/14 07:44:00;;;;;;;0.80;0.50;;;;;;;23.98;38.44;96903.31;5000831;28;20081;-79
2022/07/14 07:46:30;;;;;;;1.23;0.65;;;;;;;24.08;37.77;96902.56;5000608;28;20042;-79
2022/07/14 07:48:59;;;;;;;2.15;0.65;;;;;;;24.18;37.41;96902.56;5000884;28;20066;-79
2022/07/14 07:51:29;;;;;;;0.47;0.40;;;;;;;24.30;37.05;96899.69;5001120;28;20039;-79
2022/07/14 07:53:58;;;;;;;0.90;0.45;;;;;;;24.43;37.07;96897.31;5000341;28;20073;-78
2022/07/14 07:56:27;;;;;;;2.35;0.75;;;;;;;24.57;37.11;96902.19;4984345;28;20043;-79
2022/07/14 07:58:56;;;;;;;2.58;0.85;;;;;;;24.72;36.81;96904.06;5000697;28;20038;-79
2022/07/14 08:01:27;;;;;;;3.97;0.70;;;;;;;24.88;35.85;96898.50;5000909;28;20110;-79
2022/07/14 08:03:55;;;;;;;5.85;0.85;;;;;;;25.01;35.72;96904.34;4984152;28;20054;-78
2022/07/14 08:06:24;;;;;;;5.25;0.55;;;;;;;25.15;35.54;96893.97;5000897;28;20043;-79
2022/07/14 08:09:10;;;;;;;9.17;1.50;;;;;;;25.28;35.16;96888.09;5000973;28;20094;-79
2022/07/14 08:11:39;;;;;;;5.25;1.00;;;;;;;25.40;35.48;96887.81;5000874;28;20063;-79
2022/07/14 08:14:47;;;;;;;2.08;0.95;;;;;;;25.52;35.64;96887.50;4999387;28;20054;-79
2022/07/14 08:17:01;;;;;;;2.47;0.55;;;;;;;25.66;35.17;96885.88;5000377;28;20054;-79
2022/07/14 08:19:29;;;;;;;3.87;0.90;;;;;;;25.80;35.04;96878.91;5000689;28;20050;-79
2022/07/14 08:21:57;;;;;;;3.30;0.60;;;;;;;25.95;35.03;96877.25;5000441;28;20035;-82
2022/07/14 08:24:26;;;;;;;3.60;0.90;;;;;;;26.08;34.64;96865.97;5000315;28;20035;-80
2022/07/14 08:26:54;;;;;;;2.05;0.50;;;;;;;26.21;34.26;96865.38;5000612;28;20091;-80
2022/07/14 08:29:22;;;;;;;0.60;0.50;;;;;;;26.30;33.00;96866.41;5000446;28;20039;-79
2022/07/14 08:31:51;;;;;;;2.70;0.50;;;;;;;26.44;33.24;96863.13;5000185;28;20078;-79
2022/07/14 08:34:21;;;;;;;1.30;0.60;;;;;;;26.55;32.85;96867.31;5000252;28;20034;-80
2022/07/14 08:36:49;;;;;;;2.25;0.55;;;;;;;26.62;32.75;96851.78;5000112;28;20046;-80
2022/07/14 08:39:28;;;;;;;1.52;0.63;;;;;;;26.70;32.32;96853.84;5000260;28;20058;-80
2022/07/14 08:42:00;;;;;;;4.22;0.80;;;;;;;26.78;32.64;96851.66;5000071;28;20034;-80
2022/07/14 08:44:28;;;;;;;3.42;0.95;;;;;;;26.87;32.52;96858.00;5000161;28;20066;-80
2022/07/14 08:46:57;;;;;;;3.28;0.98;;;;;;;26.95;32.86;96848.56;5000276;28;20099;-80
2022/07/14 08:49:27;;;;;;;2.95;1.25;;;;;;;27.03;32.26;96851.44;5000118;28;20031;-80
2022/07/14 08:52:16;;;;;;;3.95;0.75;;;;;;;27.10;32.54;96854.59;4999859;28;20038;-79
2022/07/14 08:54:46;;;;;;;1.55;0.50;;;;;;;27.17;33.11;96850.78;4999855;28;20078;-79
2022/07/14 08:57:14;;;;;;;2.17;0.80;;;;;;;27.25;32.29;96842.97;4999886;28;20066;-80
2022/07/14 08:59:42;;;;;;;9.73;0.95;;;;;;;27.33;32.65;96831.66;4999934;28;20035;-80
2022/07/14 09:02:11;;;;;;;7.13;0.82;;;;;;;27.42;32.81;96834.50;4999724;28;20043;-79
2022/07/14 09:04:44;;;;;;;1.88;0.80;;;;;;;27.52;32.54;96833.56;4999724;28;20036;-80
2022/07/14 09:07:13;;;;;;;3.45;1.00;;;;;;;27.62;33.00;96832.69;4999835;28;20031;-80
2022/07/14 09:09:40;;;;;;;4.15;0.73;;;;;;;27.70;32.99;96821.31;4999559;28;20045;-78
2022/07/14 09:12:08;;;;;;;1.92;0.73;;;;;;;27.77;32.14;96815.59;4999595;28;20055;-80
2022/07/14 09:17:26;;;;;;;2.70;0.82;;;;;;;27.90;31.38;96823.78;4999582;28;20038;-80
2022/07/14 09:20:09;;;;;;;7.35;0.90;;;;;;;27.99;31.50;96825.78;4999389;28;20090;-79
2022/07/14 09:22:38;;;;;;;;;;;;;;;28.06;31.84;96828.94;4999978;28;20038;-80
2022/07/14 09:25:12;;;;;;;4.35;1.00;;;;;;;28.14;32.02;96820.22;4998915;28;19930;-79
2022/07/14 09:27:41;;;;;;;1.85;1.10;;;;;;;28.20;31.47;96819.06;4999462;28;20046;-80
2022/07/14 09:30:13;;;;;;;16.27;1.17;;;;;;;28.28;31.17;96821.09;4999109;28;20042;-80
2022/07/14 09:32:50;;;;;;;3.80;0.63;;;;;;;28.35;30.75;96816.16;4999247;28;20053;-80
2022/07/14 09:35:22;;;;;;;2.42;0.60;;;;;;;28.42;30.43;96812.31;4999149;28;20047;-79
2022/07/14 09:37:51;;;;;;;1.23;1.05;;;;;;;28.48;29.96;96803.16;4999276;28;20046;-79
2022/07/14 09:40:26;;;;;;;2.72;0.70;;;;;;;28.52;29.58;96812.22;4998993;28;20038;-79
2022/07/14 09:43:03;;;;;;;0.75;0.70;;;;;;;28.56;29.35;96815.91;4998985;28;20109;-79
2022/07/14 11:08:12;;;;;;;;;;;;;;;29.97;26.95;96723.25;5282927;23;20050;-79
2022/07/14 11:11:09;;;;;;;0.70;0.70;;;;;;;29.97;24.89;96729.41;5001466;28;19910;-79
2022/07/14 11:14:07;;;;;;;1.35;0.82;;;;;;;29.95;25.94;96720.84;5001888;28;20038;-79
2022/07/14 11:16:58;;;;;;;0.50;0.50;;;;;;;29.95;25.92;96720.84;4982053;28;20077;-79
2022/07/14 11:19:31;;;;;;;1.27;0.40;;;;;;;29.97;26.57;96713.28;4982193;28;20090;-79
2022/07/14 11:22:19;;;;;;;2.03;0.63;;;;;;;30.03;26.45;96716.66;4991727;23;20063;-79
2022/07/14 11:24:51;;;;;;;2.20;0.50;;;;;;;30.05;25.73;96703.72;4980749;28;20122;-80
2022/07/14 11:27:33;;;;;;;3.28;0.85;;;;;;;30.09;25.71;96695.84;4980320;28;20110;-79
2022/07/14 11:30:20;;;;;;;1.15;0.75;;;;;;;30.15;25.45;96697.28;4979339;28;20480;-79
2022/07/14 11:33:02;;;;;;;1.52;0.80;;;;;;;30.21;25.64;96695.28;4980219;28;20071;-79
2022/07/14 11:38:27;;;;;;;3.58;1.05;;;;;;;30.28;25.63;96701.81;4979856;28;20110;-79
2022/07/14 11:40:57;;;;;;;3.90;1.40;;;;;;;30.31;26.10;96695.84;4979362;28;20532;-79
2022/07/14 11:43:54;;;;;;;3.40;1.17;;;;;;;30.36;26.08;96682.25;4980561;28;20394;-79
2022/07/14 11:46:25;;;;;;;3.30;1.40;;;;;;;30.42;25.99;96679.47;4979823;28;20055;-79
2022/07/14 11:48:55;;;;;;;1.63;1.20;;;;;;;30.45;26.09;96676.94;4979564;28;20055;-79
2022/07/14 11:51:25;;;;;;;7.45;1.27;;;;;;;30.50;25.77;96681.38;4978433;28;20070;-79
2022/07/14 11:53:59;;;;;;;3.28;0.98;;;;;;;30.55;25.55;96668.59;4979153;28;20141;-79
2022/07/14 11:56:29;;;;;;;2.63;0.80;;;;;;;30.65;25.87;96656.75;4979604;28;20051;-79
2022/07/14 11:59:02;;;;;;;4.80;1.23;;;;;;;30.75;26.07;96658.38;4979145;28;20073;-79
2022/07/14 12:01:34;;;;;;;1.02;0.70;;;;;;;30.84;25.73;96651.13;4979319;28;20078;-79
2022/07/14 12:04:09;;;;;;;3.95;0.85;;;;;;;30.96;25.34;96655.94;4979291;28;20090;-79
2022/07/14 12:06:38;;;;;;;1.77;0.65;;;;;;;31.05;25.07;96647.88;4979797;28;20051;-79
2022/07/14 12:09:06;;;;;;;1.33;0.70;;;;;;;31.10;24.91;96636.97;4979897;28;20065;-79
2022/07/14 12:11:55;;;;;;;1.17;0.70;;;;;;;31.14;24.73;96638.72;4991563;28;20043;-78
2022/07/14 12:14:24;;;;;;;3.63;0.95;;;;;;;31.16;25.46;96644.59;4994734;28;20069;-81
2022/07/14 12:16:51;;;;;;;4.47;1.08;;;;;;;31.18;24.83;96642.41;4992904;28;20057;-79
2022/07/14 12:19:27;;;;;;;3.10;1.10;;;;;;;31.18;24.92;96644.28;4986810;28;20050;-79
2022/07/14 12:21:58;;;;;;;3.67;1.25;;;;;;;31.16;25.81;96635.75;4979876;28;20141;-79
2022/07/14 12:24:27;;;;;;;5.03;1.30;;;;;;;31.16;25.33;96631.13;4979129;28;20043;-79
2022/07/14 12:26:58;;;;;;;3.28;1.02;;;;;;;31.19;26.50;96629.72;4979460;28;20138;-79
2022/07/14 12:29:27;;;;;;;1.45;1.10;;;;;;;31.20;25.76;96626.72;4978999;28;20117;-79
2022/07/14 12:31:54;;;;;;;10.30;1.70;;;;;;;31.19;25.83;96617.03;4978340;28;20110;-79
2022/07/14 12:34:22;;;;;;;2.05;1.77;;;;;;;31.21;25.84;96622.09;4978907;28;20055;-79
2022/07/14 12:36:51;;;;;;;3.10;1.08;;;;;;;31.21;25.59;96617.50;4979415;28;20448;-80
2022/07/14 12:39:19;;;;;;;1.92;0.98;;;;;;;31.23;25.67;96621.78;4978552;28;20055;-79
2022/07/14 12:41:47;;;;;;;12.55;1.50;;;;;;;31.21;25.52;96614.03;4978304;28;20074;-79
2022/07/14 12:44:16;;;;;;;3.50;1.10;;;;;;;31.23;25.83;96611.03;4978745;28;20545;-81
2022/07/14 12:46:44;;;;;;;7.07;1.40;;;;;;;31.25;26.13;96604.19;4978868;28;20050;-79
2022/07/14 12:49:12;;;;;;;2.03;0.80;;;;;;;31.29;26.17;96601.66;4978280;28;20084;-78
2022/07/14 12:51:43;;;;;;;4.47;0.98;;;;;;;31.32;26.36;96614.50;4978261;28;20050;-79
2022/07/14 12:54:15;;;;;;;1.17;0.98;;;;;;;31.32;25.95;96603.72;4979449;28;20061;-79
2022/07/14 12:57:01;;;;;;;1.05;1.00;;;;;;;31.31;25.64;96581.38;4978204;28;20073;-79
2022/07/14 12:59:33;;;;;;;0.80;0.80;;;;;;;31.32;26.47;96598.34;4977811;28;20078;-79
2022/07/14 13:02:03;;;;;;;4.18;0.73;;;;;;;31.32;26.19;96582.16;4977848;28;20074;-80
2022/07/14 13:04:34;;;;;;;1.38;0.95;;;;;;;31.35;25.81;96581.53;4978169;28;20444;-79
2022/07/14 13:07:04;;;;;;;1.77;1.00;;;;;;;31.37;26.49;96580.09;4978597;28;20142;-80
2022/07/14 13:09:31;;;;;;;2.70;1.08;;;;;;;31.38;26.31;96587.09;4978065;28;20082;-79
2022/07/14 13:11:59;;;;;;;1.98;0.93;;;;;;;31.36;25.83;96583.91;4977923;28;20086;-80
2022/07/14 13:14:27;;;;;;;0.70;0.70;;;;;;;31.38;26.15;96580.91;4977927;28;20114;-79
2022/07/14 13:16:56;;;;;;;4.65;1.73;;;;;;;31.43;26.17;96582.69;4978631;28;20057;-80
2022/07/14 13:19:24;;;;;;;1.23;1.00;;;;;;;31.45;26.16;96577.78;4978798;28;20050;-81
2022/07/14 13:22:07;;;;;;;1.80;1.20;;;;;;;31.48;25.99;96580.59;4978562;28;20051;-79
2022/07/14 13:24:44;;;;;;;1.65;1.10;;;;;;;31.47;26.06;96570.94;4978784;28;20057;-79
2022/07/14 13:27:14;;;;;;;1.05;0.88;;;;;;;31.47;25.81;96565.56;4977675;28;20141;-79
2022/07/14 13:29:48;;;;;;;4.35;1.00;;;;;;;31.51;26.08;96566.50;4982751;28;20066;-79
2022/07/14 13:32:18;;;;;;;4.88;1.00;;;;;;;31.55;25.61;96564.75;4992981;28;20078;-80
2022/07/14 13:34:47;;;;;;;0.95;0.95;;;;;;;31.57;25.58;96565.22;4995637;28;20038;-79
2022/07/14 13:37:17;;;;;;;4.85;1.80;;;;;;;31.62;25.37;96569.66;4990583;28;20074;-79
2022/07/14 13:39:45;;;;;;;3.25;1.27;;;;;;;31.64;25.38;96569.34;4982946;28;20051;-79
2022/07/14 13:42:13;;;;;;;1.48;1.38;;;;;;;31.66;25.29;96557.09;4979424;28;20138;-79
2022/07/14 13:44:40;;;;;;;2.22;1.00;;;;;;;31.71;24.99;96550.78;4979284;28;20073;-79
2022/07/14 13:47:08;;;;;;;2.45;1.17;;;;;;;31.75;24.93;96546.31;4977997;28;20078;-79
2022/07/14 13:52:18;;;;;;;2.55;1.20;;;;;;;31.78;24.78;96548.38;4976102;28;20150;-79
2022/07/14 13:54:46;;;;;;;4.32;1.13;;;;;;;31.78;24.93;96546.47;4984779;28;20098;-79
2022/07/14 13:57:14;;;;;;;8.00;1.20;;;;;;;31.77;24.62;96542.22;4998828;28;20047;-80
2022/07/14 13:59:42;;;;;;;3.00;0.98;;;;;;;31.77;24.59;96544.91;4992878;28;20426;-79
2022/07/14 14:02:10;;;;;;;2.67;1.50;;;;;;;31.75;24.76;96551.69;4981301;28;20121;-79
2022/07/14 14:04:39;;;;;;;7.18;1.00;;;;;;;31.74;24.78;96555.53;4978966;28;20055;-79
2022/07/14 14:07:13;;;;;;;2.55;1.13;;;;;;;31.69;24.78;96553.00;4978155;28;20059;-79
2022/07/14 14:09:41;;;;;;;3.03;1.05;;;;;;;31.66;25.13;96553.63;4977971;28;20553;-79
2022/07/14 14:12:08;;;;;;;3.95;1.35;;;;;;;31.64;25.22;96555.84;4978577;28;20053;-79
2022/07/14 14:14:36;;;;;;;3.15;1.00;;;;;;;31.61;25.01;96560.78;4981956;28;20133;-79
2022/07/14 14:17:04;;;;;;;6.00;1.08;;;;;;;31.58;24.92;96547.94;4984109;28;20118;-79
2022/07/14 14:19:31;;;;;;;2.33;0.90;;;;;;;31.55;25.11;96543.19;4992780;28;20085;-80
2022/07/14 14:22:00;;;;;;;1.75;0.93;;;;;;;31.55;25.28;96559.38;4993206;28;20054;-80
2022/07/14 14:24:28;;;;;;;6.20;1.00;;;;;;;31.50;25.15;96546.03;4989849;28;20101;-80
2022/07/14 14:26:56;;;;;;;2.72;1.00;;;;;;;31.46;24.76;96561.25;4984608;28;20561;-79
2022/07/14 14:29:23;;;;;;;2.03;1.00;;;;;;;31.40;24.38;96547.13;4983221;28;20066;-80
2022/07/14 14:31:52;;;;;;;7.20;1.20;;;;;;;31.36;24.66;96550.78;4982100;28;20572;-80
2022/07/14 14:34:20;;;;;;;2.20;0.90;;;;;;;31.35;24.65;96549.19;4982071;28;20070;-80
2022/07/14 14:36:47;;;;;;;2.20;0.80;;;;;;;31.32;23.91;96545.22;4980888;28;20426;-80
2022/07/14 14:39:16;;;;;;;2.88;0.80;;;;;;;31.29;23.78;96545.06;4981214;28;20138;-80
2022/07/14 14:41:44;;;;;;;2.25;0.73;;;;;;;31.28;24.38;96543.47;4981123;28;20085;-80
2022/07/14 14:44:11;;;;;;;3.38;0.98;;;;;;;31.29;24.14;96539.66;4981925;28;20046;-80
2022/07/14 14:46:39;;;;;;;4.65;0.90;;;;;;;31.28;24.48;96538.88;4980769;28;20093;-80
2022/07/14 14:49:07;;;;;;;3.72;1.20;;;;;;;31.26;24.52;96534.91;4981237;28;20054;-80